createdAt,value
2019-05-21T00:01:52.203Z,75.90
2019-05-21T00:04:28.273Z,75.91
2019-05-21T00:06:55.999Z,76.00
2019-05-21T00:09:27.042Z,76.23
2019-05-21T00:11:58.074Z,75.96
2019-05-21T00:14:29.057Z,76.37
2019-05-21T00:17:00.162Z,76.28
2019-05-21T00:19:31.185Z,76.19
2019-05-21T00:22:02.434Z,76.04
2019-05-21T00:24:33.482Z,75.95
2019-05-21T00:27:04.621Z,75.43
2019-05-21T00:30:31.275Z,75.49
2019-05-21T00:33:56.522Z,75.95
2019-05-21T00:37:22.381Z,76.25
2019-05-21T00:40:48.026Z,76.51
2019-05-21T00:43:21.287Z,76.57
2019-05-21T00:45:52.286Z,76.53
2019-05-21T00:48:23.328Z,76.49
2019-05-21T00:50:54.505Z,75.94
2019-05-21T00:53:25.694Z,76.05
2019-05-21T00:55:56.700Z,75.72
2019-05-21T00:58:27.992Z,75.65
2019-05-21T01:00:58.982Z,75.71
2019-05-21T01:03:29.999Z,75.23
2019-05-21T01:06:01.246Z,75.54
2019-05-21T01:08:32.473Z,75.69
2019-05-21T01:11:03.541Z,75.78
2019-05-21T01:13:36.619Z,75.88
2019-05-21T01:16:07.996Z,75.94
2019-05-21T01:18:39.064Z,75.80
2019-05-21T01:21:10.414Z,75.85
2019-05-21T01:23:41.561Z,76.02
2019-05-21T01:26:12.604Z,75.67
2019-05-21T01:28:43.674Z,76.15
2019-05-21T01:31:15.042Z,76.03
2019-05-21T01:33:46.307Z,76.06
2019-05-21T01:36:17.309Z,76.21
2019-05-21T01:38:48.527Z,76.17
2019-05-21T01:41:19.631Z,75.84
2019-05-21T01:43:52.038Z,76.19
2019-05-21T01:46:23.584Z,75.75
2019-05-21T01:48:54.591Z,75.57
2019-05-21T01:51:25.620Z,75.61
2019-05-21T01:53:56.618Z,75.70
2019-05-21T01:56:27.645Z,75.28
2019-05-21T01:58:58.802Z,75.54
2019-05-21T02:01:29.969Z,76.00
2019-05-21T02:04:01.047Z,75.76
2019-05-21T02:06:32.164Z,75.44
2019-05-21T02:09:04.784Z,75.27
2019-05-21T02:11:36.878Z,75.20
2019-05-21T02:14:07.993Z,75.03
2019-05-21T02:16:39.124Z,75.41
2019-05-21T02:19:10.164Z,75.65
2019-05-21T02:21:41.188Z,75.85
2019-05-21T02:24:12.193Z,76.06
2019-05-21T02:26:43.293Z,76.02
2019-05-21T02:29:14.357Z,75.79
2019-05-21T02:31:45.396Z,75.53
2019-05-21T02:34:16.418Z,75.58
2019-05-21T02:36:47.605Z,75.41
2019-05-21T02:39:19.000Z,75.37
2019-05-21T02:41:50.027Z,75.31
2019-05-21T02:44:21.017Z,75.21
2019-05-21T02:46:52.251Z,75.28
2019-05-21T02:49:23.228Z,75.38
2019-05-21T02:51:54.342Z,76.17
2019-05-21T02:54:40.154Z,76.03
2019-05-21T02:56:58.264Z,75.78
2019-05-21T02:59:29.327Z,75.57
2019-05-21T03:02:09.025Z,75.52
2019-05-21T03:04:40.030Z,75.59
2019-05-21T03:07:20.463Z,75.38
2019-05-21T03:09:51.862Z,75.97
2019-05-21T03:12:22.889Z,75.73
2019-05-21T03:14:54.015Z,75.35
2019-05-21T03:17:26.100Z,75.37
2019-05-21T03:19:57.264Z,76.04
2019-05-21T03:22:28.650Z,75.67
2019-05-21T03:25:02.426Z,76.08
2019-05-21T03:27:32.456Z,75.84
2019-05-21T03:30:03.541Z,75.69
2019-05-21T03:32:34.631Z,75.59
2019-05-21T03:35:07.706Z,75.46
2019-05-21T03:37:38.727Z,75.51
2019-05-21T03:40:11.346Z,75.73
2019-05-21T03:42:42.379Z,75.84
2019-05-21T03:45:14.331Z,75.79
2019-05-21T03:47:46.334Z,75.76
2019-05-21T03:50:17.877Z,75.77
2019-05-21T03:52:49.115Z,75.80
2019-05-21T03:55:20.121Z,75.58
2019-05-21T03:57:51.147Z,75.71
2019-05-21T04:00:23.089Z,75.51
2019-05-21T04:02:54.131Z,75.71
2019-05-21T04:05:27.023Z,75.46
2019-05-21T04:07:58.179Z,75.46
2019-05-21T04:10:29.184Z,75.59
2019-05-21T04:13:10.263Z,75.46
2019-05-21T04:15:52.238Z,75.86
2019-05-21T04:18:27.844Z,76.13
2019-05-21T04:20:58.866Z,75.84
2019-05-21T04:23:29.980Z,75.68
2019-05-21T04:26:00.978Z,75.27
2019-05-21T04:28:33.110Z,75.36
2019-05-21T04:31:04.183Z,75.39
2019-05-21T04:33:37.588Z,75.70
2019-05-21T04:36:08.666Z,75.39
2019-05-21T04:38:39.730Z,75.44
2019-05-21T04:41:10.748Z,75.38
2019-05-21T04:43:41.985Z,75.27
2019-05-21T04:46:13.031Z,75.44
2019-05-21T04:48:44.303Z,75.57
2019-05-21T04:51:15.347Z,75.64
2019-05-21T04:53:46.369Z,75.79
2019-05-21T04:56:17.490Z,75.29
2019-05-21T04:58:48.493Z,75.06
2019-05-21T05:01:19.606Z,75.51
2019-05-21T05:03:50.697Z,75.61
2019-05-21T05:06:22.093Z,75.49
2019-05-21T05:08:53.277Z,75.31
2019-05-21T05:11:24.342Z,75.40
2019-05-21T05:13:56.313Z,75.26
2019-05-21T05:16:27.543Z,75.49
2019-05-21T05:18:58.647Z,75.39
2019-05-21T05:21:29.871Z,75.48
2019-05-21T05:24:00.932Z,75.77
2019-05-21T05:26:31.969Z,75.83
2019-05-21T05:29:03.062Z,75.86
2019-05-21T05:31:34.147Z,75.60
2019-05-21T05:34:05.204Z,75.62
2019-05-21T05:36:37.357Z,75.74
2019-05-21T05:39:09.343Z,75.55
2019-05-21T05:41:40.804Z,75.37
2019-05-21T05:44:11.951Z,75.56
2019-05-21T05:46:43.002Z,75.69
2019-05-21T05:49:22.194Z,75.79
2019-05-21T05:51:53.396Z,75.24
2019-05-21T05:54:24.463Z,75.96
2019-05-21T05:56:55.534Z,75.58
2019-05-21T05:59:26.684Z,75.47
2019-05-21T06:01:57.809Z,75.47
2019-05-21T06:04:30.628Z,75.71
2019-05-21T06:07:01.758Z,75.55
2019-05-21T06:09:32.843Z,75.43
2019-05-21T06:12:03.975Z,75.60
2019-05-21T06:14:34.976Z,75.76
2019-05-21T06:17:07.411Z,75.93
2019-05-21T06:19:38.461Z,75.46
2019-05-21T06:22:09.464Z,76.06
2019-05-21T06:24:40.457Z,76.17
2019-05-21T06:27:11.563Z,75.45
2019-05-21T06:29:42.592Z,75.79
2019-05-21T06:32:13.687Z,75.30
2019-05-21T06:34:44.689Z,75.81
2019-05-21T06:37:15.715Z,75.90
2019-05-21T06:39:46.752Z,76.00
2019-05-21T06:42:17.929Z,76.25
2019-05-21T06:44:48.931Z,76.17
2019-05-21T06:47:20.036Z,76.35
2019-05-21T06:49:51.039Z,76.51
2019-05-21T06:52:22.115Z,76.35
2019-05-21T06:54:53.108Z,76.25
2019-05-21T06:57:24.132Z,76.07
2019-05-21T06:59:55.153Z,76.50
2019-05-21T07:02:26.433Z,76.43
2019-05-21T07:04:57.483Z,76.50
2019-05-21T07:07:28.508Z,76.45
2019-05-21T07:09:59.578Z,76.49
2019-05-21T07:12:31.662Z,76.55
2019-05-21T07:15:02.978Z,76.74
2019-05-21T07:17:34.254Z,77.20
2019-05-21T07:20:10.072Z,76.77
2019-05-21T07:22:41.141Z,76.80
2019-05-21T07:25:13.138Z,76.62
2019-05-21T07:27:44.203Z,76.73
2019-05-21T07:30:15.457Z,76.50
2019-05-21T07:32:46.581Z,76.90
2019-05-21T07:35:17.700Z,76.98
2019-05-21T07:37:48.724Z,77.22
2019-05-21T07:40:19.924Z,76.91
2019-05-21T07:42:50.941Z,77.21
2019-05-21T07:45:21.936Z,76.81
2019-05-21T07:47:52.971Z,77.09
2019-05-21T07:50:24.002Z,77.06
2019-05-21T07:52:55.031Z,77.35
2019-05-21T07:55:27.013Z,77.27
2019-05-21T07:57:58.166Z,77.17
2019-05-21T08:00:29.277Z,77.21
2019-05-21T08:03:00.408Z,76.95
2019-05-21T08:05:31.830Z,77.14
2019-05-21T08:08:03.108Z,76.93
2019-05-21T08:10:34.124Z,76.80
2019-05-21T08:13:05.239Z,76.72
2019-05-21T08:15:37.553Z,76.55
2019-05-21T08:18:08.721Z,76.53
2019-05-21T08:20:39.868Z,77.03
2019-05-21T08:23:10.893Z,77.18
2019-05-21T08:25:42.887Z,77.36
2019-05-21T08:28:13.913Z,77.47
2019-05-21T08:30:44.964Z,77.69
2019-05-21T08:33:16.004Z,77.61
2019-05-21T08:35:47.152Z,77.60
2019-05-21T08:38:18.186Z,77.11
2019-05-21T08:40:49.526Z,77.27
2019-05-21T08:43:22.209Z,77.40
2019-05-21T08:45:53.402Z,77.36
2019-05-21T08:48:24.589Z,77.70
2019-05-21T08:50:55.578Z,77.45
2019-05-21T08:53:26.928Z,77.24
2019-05-21T08:55:58.041Z,77.00
2019-05-21T08:58:29.172Z,77.31
2019-05-21T09:01:00.397Z,77.20
2019-05-21T09:03:31.509Z,77.01
2019-05-21T09:06:02.615Z,77.32
2019-05-21T09:08:33.609Z,77.54
2019-05-21T09:11:05.789Z,77.85
2019-05-21T09:13:37.902Z,78.07
2019-05-21T09:16:08.906Z,77.60
2019-05-21T09:18:40.028Z,78.15
2019-05-21T09:21:12.050Z,77.26
2019-05-21T09:23:43.140Z,77.44
2019-05-21T09:26:14.674Z,77.16
2019-05-21T09:28:45.822Z,77.34
2019-05-21T09:31:16.833Z,77.18
2019-05-21T09:33:47.881Z,77.31
2019-05-21T09:36:18.866Z,77.54
2019-05-21T09:38:50.056Z,77.29
2019-05-21T09:41:21.263Z,77.45
2019-05-21T09:43:52.325Z,77.47
2019-05-21T09:46:23.407Z,77.12
2019-05-21T09:48:56.200Z,77.18
2019-05-21T09:51:27.512Z,76.99
2019-05-21T09:53:58.661Z,77.37
2019-05-21T09:56:32.423Z,77.48
2019-05-21T09:59:14.889Z,77.55
2019-05-21T10:01:48.609Z,77.83
2019-05-21T10:04:19.680Z,77.79
2019-05-21T10:06:50.668Z,77.70
2019-05-21T10:09:21.720Z,77.75
2019-05-21T10:11:52.773Z,77.57
2019-05-21T10:14:23.820Z,77.29
2019-05-21T10:16:54.811Z,77.21
2019-05-21T10:19:27.071Z,76.91
2019-05-21T10:21:58.082Z,76.81
2019-05-21T10:24:29.232Z,76.86
2019-05-21T10:27:03.442Z,76.84
2019-05-21T10:29:33.394Z,76.95
2019-05-21T10:32:06.311Z,77.02
2019-05-21T10:34:38.118Z,77.03
2019-05-21T10:37:09.374Z,76.87
2019-05-21T10:39:40.498Z,76.47
2019-05-21T10:42:11.516Z,76.27
2019-05-21T10:44:42.573Z,76.33
2019-05-21T10:47:16.363Z,76.17
2019-05-21T10:49:46.488Z,76.34
2019-05-21T10:52:17.480Z,76.68
2019-05-21T10:54:48.548Z,76.36
2019-05-21T10:57:19.625Z,76.66
2019-05-21T10:59:50.658Z,76.85
2019-05-21T11:02:28.301Z,76.43
2019-05-21T11:05:33.777Z,76.71
2019-05-21T11:08:22.847Z,76.46
2019-05-21T11:10:38.391Z,76.44
2019-05-21T11:13:09.586Z,76.56
2019-05-21T11:15:41.164Z,76.43
2019-05-21T11:18:12.378Z,76.24
2019-05-21T11:20:43.920Z,76.29
2019-05-21T11:23:15.013Z,76.63
2019-05-21T11:25:46.055Z,76.62
2019-05-21T11:28:17.209Z,76.67
2019-05-21T11:30:48.308Z,76.74
2019-05-21T11:33:19.379Z,76.73
2019-05-21T11:35:50.553Z,76.75
2019-05-21T11:38:21.795Z,76.67
2019-05-21T11:40:53.091Z,76.95
2019-05-21T11:43:24.150Z,77.30
2019-05-21T11:45:55.331Z,77.14
2019-05-21T11:48:27.229Z,76.69
2019-05-21T11:50:58.252Z,76.78
2019-05-21T11:53:31.939Z,76.92
2019-05-21T11:56:02.053Z,77.02
2019-05-21T11:58:39.421Z,77.03
2019-05-21T12:01:06.055Z,76.95
2019-05-21T12:03:38.307Z,77.05
2019-05-21T12:06:09.725Z,76.85
2019-05-21T12:08:55.690Z,76.84
2019-05-21T12:11:13.821Z,76.71
2019-05-21T12:13:44.827Z,76.90
2019-05-21T12:16:16.183Z,77.25
2019-05-21T12:18:47.356Z,77.70
2019-05-21T12:21:18.469Z,77.42
2019-05-21T12:23:49.455Z,77.67
2019-05-21T12:26:20.566Z,77.62
2019-05-21T12:28:51.794Z,77.31
2019-05-21T12:31:23.998Z,77.35
2019-05-21T12:33:55.084Z,77.15
2019-05-21T12:36:27.738Z,77.15
2019-05-21T12:39:13.192Z,76.66
2019-05-21T12:41:33.299Z,76.81
2019-05-21T12:44:04.537Z,77.23
2019-05-21T12:46:35.651Z,77.12
2019-05-21T12:49:06.674Z,76.99
2019-05-21T12:51:38.594Z,77.46
2019-05-21T12:54:09.670Z,77.28
2019-05-21T12:56:41.889Z,76.76
2019-05-21T12:59:13.020Z,77.35
2019-05-21T13:01:44.039Z,77.29
2019-05-21T13:04:15.037Z,77.50
2019-05-21T13:06:46.075Z,77.15
2019-05-21T13:09:31.499Z,77.10
2019-05-21T13:11:50.032Z,77.02
2019-05-21T13:14:21.065Z,77.45
2019-05-21T13:16:52.153Z,76.81
2019-05-21T13:19:23.286Z,76.79
2019-05-21T13:21:54.549Z,76.47
2019-05-21T13:24:25.516Z,76.46
2019-05-21T13:26:56.637Z,76.54
2019-05-21T13:29:27.853Z,76.35
2019-05-21T13:31:58.900Z,76.16
2019-05-21T13:34:29.918Z,76.40
2019-05-21T13:37:00.959Z,76.36
2019-05-21T13:39:48.369Z,76.88
2019-05-21T13:42:05.061Z,77.12
2019-05-21T13:44:36.176Z,76.69
2019-05-21T13:47:09.041Z,76.76
2019-05-21T13:49:40.386Z,76.69
2019-05-21T13:52:11.749Z,76.58
2019-05-21T13:54:42.776Z,76.97
2019-05-21T13:57:14.144Z,76.74
2019-05-21T13:59:45.493Z,76.69
2019-05-21T14:02:17.793Z,76.89
2019-05-21T14:04:48.810Z,76.96
2019-05-21T14:07:20.958Z,76.79
2019-05-21T14:10:12.700Z,76.99
2019-05-21T14:12:24.992Z,77.10
2019-05-21T14:14:56.026Z,77.28
2019-05-21T14:17:27.975Z,76.97
2019-05-21T14:19:58.976Z,76.67
2019-05-21T14:22:30.118Z,76.89
2019-05-21T14:25:01.365Z,76.58
2019-05-21T14:27:43.899Z,77.12
2019-05-21T14:30:06.028Z,77.02
2019-05-21T14:32:37.276Z,77.29
2019-05-21T14:35:09.549Z,77.39
2019-05-21T14:37:41.027Z,77.54
2019-05-21T14:40:28.524Z,77.22
2019-05-21T14:42:59.200Z,76.44
2019-05-21T14:45:18.804Z,76.70
2019-05-21T14:47:49.940Z,76.79
2019-05-21T14:50:21.043Z,76.98
2019-05-21T14:52:52.530Z,76.96
2019-05-21T14:55:23.553Z,77.05
2019-05-21T14:57:54.887Z,77.19
2019-05-21T15:00:33.726Z,77.33
2019-05-21T15:03:04.910Z,76.97
2019-05-21T15:05:36.408Z,77.24
2019-05-21T15:08:08.800Z,77.29
2019-05-21T15:10:48.392Z,77.40
2019-05-21T15:13:12.570Z,77.40
2019-05-21T15:15:43.719Z,77.09
2019-05-21T15:18:21.147Z,77.21
2019-05-21T15:20:53.107Z,77.11
2019-05-21T15:23:24.214Z,77.22
2019-05-21T15:25:55.396Z,76.93
2019-05-21T15:28:26.772Z,76.86
2019-05-21T15:30:57.938Z,77.16
2019-05-21T15:33:29.128Z,77.21
2019-05-21T15:36:00.350Z,77.19
2019-05-21T15:38:48.787Z,76.95
2019-05-21T15:41:10.699Z,76.89
2019-05-21T15:43:37.278Z,76.94
2019-05-21T15:46:09.407Z,76.80
2019-05-21T15:48:40.445Z,77.10
2019-05-21T15:51:11.547Z,76.75
2019-05-21T15:53:42.605Z,76.72
2019-05-21T15:56:14.008Z,76.67
2019-05-21T15:58:45.452Z,76.60
2019-05-21T16:01:17.514Z,76.54
2019-05-21T16:03:48.551Z,76.97
2019-05-21T16:06:19.702Z,76.70
2019-05-21T16:08:50.808Z,76.62
2019-05-21T16:11:28.801Z,76.61
2019-05-21T16:13:54.945Z,76.50
2019-05-21T16:16:26.046Z,76.47
2019-05-21T16:18:57.232Z,76.54
2019-05-21T16:21:28.536Z,76.54
2019-05-21T16:23:59.569Z,76.61
2019-05-21T16:26:30.586Z,76.63
2019-05-21T16:29:01.637Z,76.59
2019-05-21T16:31:32.742Z,76.70
2019-05-21T16:34:04.252Z,76.67
2019-05-21T16:36:35.425Z,77.03
2019-05-21T16:39:09.309Z,76.78
2019-05-21T16:41:44.768Z,76.80
2019-05-21T16:44:13.496Z,77.07
2019-05-21T16:46:44.637Z,76.83
2019-05-21T16:49:15.748Z,76.87
2019-05-21T16:51:46.760Z,76.69
2019-05-21T16:54:17.813Z,77.09
2019-05-21T16:56:48.904Z,77.09
2019-05-21T16:59:20.131Z,76.87
2019-05-21T17:01:51.326Z,77.03
2019-05-21T17:04:22.416Z,76.94
2019-05-21T17:06:53.498Z,77.00
2019-05-21T17:09:28.131Z,77.16
2019-05-21T17:12:00.322Z,77.00
2019-05-21T17:14:30.454Z,76.81
2019-05-21T17:17:01.476Z,76.63
2019-05-21T17:19:32.713Z,76.52
2019-05-21T17:22:03.737Z,76.62
2019-05-21T17:24:34.762Z,77.02
2019-05-21T17:27:05.902Z,77.17
2019-05-21T17:29:36.891Z,76.74
2019-05-21T17:32:09.153Z,76.51
2019-05-21T17:34:40.196Z,76.41
2019-05-21T17:37:11.246Z,76.25
2019-05-21T17:39:42.253Z,76.34
2019-05-21T17:42:15.817Z,76.44
2019-05-21T17:44:46.509Z,76.50
2019-05-21T17:47:17.685Z,76.82
2019-05-21T17:49:48.756Z,76.42
2019-05-21T17:52:19.870Z,76.71
2019-05-21T17:54:56.827Z,76.63
2019-05-21T17:57:24.087Z,76.65
2019-05-21T17:59:55.243Z,76.39
2019-05-21T18:02:28.174Z,76.23
2019-05-21T18:04:59.672Z,76.43
2019-05-21T18:07:31.634Z,76.30
2019-05-21T18:10:02.752Z,76.58
2019-05-21T18:12:36.456Z,76.80
2019-05-21T18:15:10.187Z,76.56
2019-05-21T18:17:42.826Z,76.35
2019-05-21T18:20:15.834Z,76.45
2019-05-21T18:22:48.509Z,76.43
2019-05-21T18:25:19.664Z,76.28
2019-05-21T18:27:50.862Z,76.30
2019-05-21T18:30:24.354Z,76.24
2019-05-21T18:32:55.484Z,76.30
2019-05-21T18:35:26.567Z,76.37
2019-05-21T18:37:57.735Z,76.40
2019-05-21T18:40:28.948Z,76.51
2019-05-21T18:43:00.165Z,76.45
2019-05-21T18:45:31.321Z,76.42
2019-05-21T18:48:02.425Z,76.60
2019-05-21T18:50:36.635Z,76.48
2019-05-21T18:53:06.264Z,76.35
2019-05-21T18:55:37.414Z,76.42
2019-05-21T18:58:09.755Z,76.23
2019-05-21T19:00:40.789Z,76.63
2019-05-21T19:03:12.169Z,76.57
2019-05-21T19:05:43.256Z,76.73
2019-05-21T19:08:14.428Z,76.62
2019-05-21T19:10:45.769Z,76.59
2019-05-21T19:13:17.189Z,76.50
2019-05-21T19:15:48.447Z,76.38
2019-05-21T19:18:19.602Z,76.13
2019-05-21T19:20:50.896Z,76.32
2019-05-21T19:23:23.230Z,76.27
2019-05-21T19:25:54.408Z,76.09
2019-05-21T19:28:25.547Z,76.10
2019-05-21T19:30:57.811Z,76.12
2019-05-21T19:33:29.074Z,76.20
2019-05-21T19:36:00.213Z,76.23
2019-05-21T19:38:31.635Z,76.05
2019-05-21T19:41:02.807Z,76.00
2019-05-21T19:43:34.175Z,76.08
2019-05-21T19:46:05.384Z,75.99
2019-05-21T19:48:36.585Z,76.22
2019-05-21T19:51:07.783Z,75.88
2019-05-21T19:53:39.706Z,76.11
2019-05-21T19:56:11.829Z,76.25
2019-05-21T19:58:42.909Z,76.16
2019-05-21T20:01:14.030Z,75.92
2019-05-21T20:03:45.547Z,75.89
2019-05-21T20:06:18.468Z,75.81
2019-05-21T20:08:49.786Z,76.16
2019-05-21T20:11:21.205Z,75.87
2019-05-21T20:13:52.956Z,76.26
2019-05-21T20:16:24.895Z,76.52
2019-05-21T20:18:56.096Z,76.11
2019-05-21T20:21:27.851Z,76.23
2019-05-21T20:23:59.114Z,75.78
2019-05-21T20:26:33.251Z,75.79
2019-05-21T20:29:04.994Z,75.85
2019-05-21T20:31:36.039Z,75.74
2019-05-21T20:34:07.666Z,75.69
2019-05-21T20:36:40.905Z,75.46
2019-05-21T20:39:15.169Z,75.62
2019-05-21T20:41:47.446Z,75.55
2019-05-21T20:44:19.938Z,75.55
2019-05-21T20:46:51.726Z,75.52
2019-05-21T20:49:23.925Z,75.68
2019-05-21T20:51:55.328Z,75.68
2019-05-21T20:54:28.019Z,75.64
2019-05-21T20:56:59.227Z,75.66
2019-05-21T20:59:30.499Z,75.70
2019-05-21T21:02:05.692Z,75.74
2019-05-21T21:04:35.214Z,75.61
2019-05-21T21:07:07.418Z,75.67
2019-05-21T21:09:40.250Z,75.83
2019-05-21T21:12:11.644Z,75.93
2019-05-21T21:14:43.399Z,76.28
2019-05-21T21:17:16.351Z,76.07
2019-05-21T21:19:47.493Z,76.14
2019-05-21T21:22:18.611Z,76.58
2019-05-21T21:24:50.828Z,76.31
2019-05-21T21:27:23.104Z,76.07
2019-05-21T21:29:54.277Z,76.00
2019-05-21T21:32:25.570Z,76.01
2019-05-21T21:34:56.815Z,75.76
2019-05-21T21:37:29.148Z,75.93
2019-05-21T21:40:00.526Z,75.81
2019-05-21T21:42:32.400Z,75.64
2019-05-21T21:45:04.006Z,75.59
2019-05-21T21:47:35.458Z,75.97
2019-05-21T21:50:08.358Z,75.98
2019-05-21T21:52:39.900Z,75.79
2019-05-21T21:55:11.707Z,75.86
2019-05-21T21:57:42.846Z,76.04
2019-05-21T22:01:01.548Z,76.05
2019-05-21T22:03:35.681Z,75.74
2019-05-21T22:06:09.766Z,75.82
2019-05-21T22:08:40.978Z,75.93
2019-05-21T22:11:12.108Z,75.89
2019-05-21T22:13:43.275Z,75.64
2019-05-21T22:16:14.800Z,75.63
2019-05-21T22:18:46.129Z,75.93
2019-05-21T22:21:17.800Z,76.18
2019-05-21T22:23:50.461Z,76.02
2019-05-21T22:26:21.744Z,75.85
2019-05-21T22:28:52.821Z,76.30
2019-05-21T22:31:23.998Z,76.05
2019-05-21T22:33:55.108Z,76.00
2019-05-21T22:36:26.382Z,75.91
2019-05-21T22:38:57.544Z,75.94
2019-05-21T22:41:29.732Z,76.29
2019-05-21T22:44:00.813Z,75.88
2019-05-21T22:46:31.950Z,75.93
2019-05-21T22:49:02.978Z,75.80
2019-05-21T22:51:34.157Z,75.96
2019-05-21T22:54:05.327Z,75.81
2019-05-21T22:56:36.695Z,75.81
2019-05-21T22:59:07.782Z,75.63
2019-05-21T23:01:41.294Z,75.72
2019-05-21T23:04:12.551Z,75.83
2019-05-21T23:06:45.199Z,75.78
2019-05-21T23:09:16.295Z,76.14
2019-05-21T23:11:47.368Z,75.95
2019-05-21T23:14:18.487Z,76.07
2019-05-21T23:16:50.232Z,75.93
2019-05-21T23:19:26.538Z,75.71
2019-05-21T23:22:11.536Z,75.76
2019-05-21T23:24:42.663Z,75.87
2019-05-21T23:27:15.357Z,76.00
2019-05-21T23:29:46.426Z,75.99
2019-05-21T23:32:17.445Z,75.98
2019-05-21T23:34:49.402Z,75.71
2019-05-21T23:37:21.824Z,76.00
2019-05-21T23:39:54.864Z,75.80
2019-05-21T23:42:29.885Z,75.96
2019-05-21T23:44:59.281Z,75.69
2019-05-21T23:47:30.452Z,75.83
2019-05-21T23:50:01.455Z,75.98
2019-05-21T23:52:32.713Z,75.76
2019-05-21T23:55:03.893Z,75.80
2019-05-21T23:57:36.657Z,76.17
